createdAt,value
2023-08-10T00:00:27.332Z,4.80
2023-08-10T00:02:55.722Z,4.65
2023-08-10T00:05:22.753Z,4.68
2023-08-10T00:07:49.696Z,4.90
2023-08-10T04:33:14.281Z,3.40
2023-08-10T04:35:41.160Z,2.38
2023-08-10T05:27:12.127Z,2.55
2023-08-10T05:29:39.083Z,2.90
2023-08-10T05:32:06.294Z,3.10
2023-08-10T05:39:27.227Z,3.47
2023-08-10T05:41:55.033Z,3.05
2023-08-10T06:31:20.043Z,1.45
2023-08-10T06:33:46.981Z,1.30
2023-08-10T06:36:13.961Z,1.40
2023-08-10T06:41:07.700Z,1.40
2023-08-10T06:43:34.588Z,1.52
2023-08-10T06:46:01.715Z,1.67
2023-08-10T06:48:28.665Z,1.20
2023-08-10T06:50:55.547Z,1.48
2023-08-10T06:53:22.918Z,1.42
2023-08-10T06:55:52.145Z,1.30
2023-08-10T07:00:49.742Z,1.42
2023-08-10T07:03:16.748Z,1.60
2023-08-10T07:05:45.170Z,1.42
2023-08-10T07:08:12.150Z,1.30
2023-08-10T07:52:27.251Z,1.30
2023-08-10T07:54:54.208Z,1.35
2023-08-10T07:57:21.178Z,1.40
2023-08-10T07:59:48.135Z,1.27
2023-08-10T08:02:15.071Z,1.30
2023-08-10T08:04:42.158Z,1.20
2023-08-10T08:07:09.410Z,1.10
2023-08-10T08:09:36.360Z,1.40
2023-08-10T08:12:03.642Z,1.17
2023-08-10T08:14:30.863Z,1.10
2023-08-10T08:16:57.803Z,0.85
2023-08-10T08:19:24.712Z,1.00
2023-08-10T08:21:51.652Z,1.40
2023-08-10T08:24:18.625Z,1.00
2023-08-10T08:26:45.526Z,1.20
2023-08-10T08:29:13.004Z,1.15
2023-08-10T08:31:40.080Z,0.82
2023-08-10T08:34:07.185Z,0.85
2023-08-10T08:36:34.416Z,1.13
2023-08-10T08:39:01.422Z,1.00
2023-08-10T08:41:34.916Z,0.85
2023-08-10T08:44:02.395Z,0.98
2023-08-10T08:46:32.257Z,1.00
2023-08-10T08:48:59.437Z,1.10
2023-08-10T08:51:27.390Z,1.30
2023-08-10T08:53:54.578Z,1.02
2023-08-10T08:56:21.481Z,1.17
2023-08-10T08:58:48.705Z,1.10
2023-08-10T09:23:41.789Z,1.10
2023-08-10T09:26:12.943Z,0.90
2023-08-10T09:28:40.218Z,0.98
2023-08-10T09:31:14.866Z,1.00
2023-08-10T09:33:42.534Z,1.33
2023-08-10T09:41:12.539Z,1.10
2023-08-10T09:43:44.685Z,1.45
2023-08-10T09:46:14.239Z,1.55
2023-08-10T09:48:46.402Z,1.17
2023-08-10T09:51:14.418Z,1.00
2023-08-10T09:53:41.867Z,0.88
2023-08-10T09:56:09.743Z,1.13
2023-08-10T09:58:39.161Z,1.00
2023-08-10T10:01:09.490Z,1.33
2023-08-10T10:03:37.048Z,1.00
2023-08-10T10:06:04.640Z,1.15
2023-08-10T10:08:36.075Z,1.23
2023-08-10T10:11:08.174Z,1.30
2023-08-10T10:13:35.847Z,0.95
2023-08-10T10:16:03.369Z,1.10
2023-08-10T10:18:31.428Z,1.10
2023-08-10T10:20:58.941Z,1.10
2023-08-10T10:23:31.074Z,1.30
2023-08-10T10:26:00.742Z,1.15
2023-08-10T10:28:30.549Z,1.55
2023-08-10T10:31:16.545Z,1.35
2023-08-10T10:33:56.985Z,1.10
2023-08-10T10:36:24.916Z,1.27
2023-08-10T10:39:13.189Z,1.30
2023-08-10T10:41:43.921Z,1.08
2023-08-10T10:44:11.123Z,1.02
2023-08-10T10:46:39.836Z,1.00
2023-08-10T10:49:11.976Z,1.00
2023-08-10T10:51:50.700Z,1.20
2023-08-10T10:54:17.911Z,1.40
2023-08-10T10:56:44.928Z,0.90
2023-08-10T10:59:11.873Z,1.00
2023-08-10T11:01:39.046Z,0.98
2023-08-10T11:04:08.676Z,1.00
2023-08-10T11:06:39.507Z,1.02
2023-08-10T11:09:08.594Z,1.00
2023-08-10T11:11:38.608Z,1.00
2023-08-10T11:14:05.663Z,1.00
2023-08-10T11:16:46.209Z,1.20
2023-08-10T11:19:14.754Z,0.98
2023-08-10T11:21:53.158Z,0.90
2023-08-10T11:24:20.197Z,1.35
2023-08-10T11:26:49.416Z,1.00
2023-08-10T11:29:20.520Z,0.88
2023-08-10T11:34:25.137Z,0.98
2023-08-10T11:36:54.286Z,0.90
2023-08-10T11:39:21.806Z,0.98
2023-08-10T11:41:48.886Z,1.02
2023-08-10T11:44:37.912Z,1.10
2023-08-10T11:47:05.984Z,1.10
2023-08-10T11:49:33.913Z,0.77
2023-08-10T11:52:06.256Z,1.00
2023-08-10T11:54:38.318Z,1.20
2023-08-10T11:57:14.973Z,1.10
2023-08-10T11:59:42.442Z,0.80
2023-08-10T12:02:14.930Z,0.90
2023-08-10T12:04:42.540Z,0.90
2023-08-10T12:07:09.660Z,0.80
2023-08-10T12:09:38.600Z,1.02
2023-08-10T12:12:06.743Z,0.90
2023-08-10T12:14:33.702Z,1.10
2023-08-10T12:17:00.834Z,0.90
2023-08-10T12:19:27.809Z,1.17
2023-08-10T12:21:54.909Z,0.98
2023-08-10T12:24:22.587Z,1.10
2023-08-10T12:26:52.202Z,0.77
2023-08-10T12:29:19.338Z,1.20
2023-08-10T12:31:46.247Z,0.88
2023-08-10T12:34:13.226Z,1.00
2023-08-10T12:36:40.228Z,1.30
2023-08-10T12:39:07.207Z,1.13
2023-08-10T12:41:34.186Z,1.10
2023-08-10T12:44:01.038Z,1.10
2023-08-10T12:46:27.982Z,0.98
2023-08-10T12:48:54.902Z,1.10
2023-08-10T12:51:21.886Z,1.00
2023-08-10T12:53:48.866Z,0.98
2023-08-10T12:56:15.784Z,0.82
2023-08-10T12:58:42.676Z,1.00
2023-08-10T13:01:09.643Z,0.88
2023-08-10T13:03:36.591Z,1.10
2023-08-10T13:06:03.741Z,1.13
2023-08-10T13:08:30.932Z,0.85
2023-08-10T13:10:59.264Z,1.02
2023-08-10T13:13:26.149Z,1.10
2023-08-10T13:15:53.084Z,1.10
2023-08-10T13:18:20.030Z,0.90
2023-08-10T13:20:47.749Z,1.00
2023-08-10T13:23:14.803Z,1.17
2023-08-10T13:25:41.771Z,0.95
2023-08-10T13:28:08.728Z,1.10
2023-08-10T13:30:36.329Z,1.38
2023-08-10T13:33:03.358Z,0.90
2023-08-10T13:35:30.253Z,1.10
2023-08-10T13:37:57.194Z,1.33
2023-08-10T13:40:24.097Z,1.10
2023-08-10T13:42:51.041Z,1.05
2023-08-10T13:45:18.022Z,1.35
2023-08-10T13:47:44.981Z,1.00
2023-08-10T13:50:12.905Z,0.90
2023-08-10T13:52:39.866Z,1.10
2023-08-10T13:55:08.352Z,0.90
2023-08-10T13:57:35.256Z,1.00
2023-08-10T14:00:02.398Z,1.17
2023-08-10T14:02:29.484Z,1.27
2023-08-10T14:04:56.633Z,1.17
2023-08-10T14:07:23.655Z,1.33
2023-08-10T14:09:51.558Z,1.20
2023-08-10T14:12:18.510Z,1.35
2023-08-10T14:14:45.462Z,1.00
2023-08-10T14:17:12.457Z,1.00
2023-08-10T15:50:46.311Z,1.30
2023-08-10T15:53:13.220Z,1.33
2023-08-10T15:55:40.631Z,1.70
2023-08-10T15:58:08.781Z,1.00
2023-08-10T16:00:36.487Z,1.50
